Time;durP1;ratioP1;P1;durP2;ratioP2;P2;SDS_P1;SDS_P2;PMS_P1;PMS_P2;Temp;Humidity;BMP_temperature;BMP_pressure;BME280_temperature;BME280_humidity;BME280_pressure;Samples;Min_cycle;Max_cycle;Signal;HPM_P1;HPM_P2
2022/06/20 00:01:18;;;;;;;11.23;3.00;;;;;;;12.74;91.60;101234.31;5048555;28;20037;-82
2022/06/20 00:03:47;;;;;;;14.40;3.50;;;;;;;12.75;91.15;101233.25;5051849;28;20468;-82
2022/06/20 00:06:16;;;;;;;10.13;3.00;;;;;;;12.70;90.65;101217.63;5047270;28;20037;-83
2022/06/20 00:08:41;;;;;;;14.70;3.60;;;;;;;12.87;90.81;101236.97;5051437;28;20070;-83
2022/06/20 00:11:14;;;;;;;11.53;3.30;;;;;;;12.74;91.24;101239.75;5050461;28;20049;-84
2022/06/20 00:13:42;;;;;;;14.80;3.60;;;;;;;12.68;90.96;101243.34;5033213;28;20110;-82
2022/06/20 00:16:13;;;;;;;12.33;3.30;;;;;;;12.68;91.94;101238.72;5047294;28;20036;-82
2022/06/20 00:18:39;;;;;;;14.53;3.60;;;;;;;12.59;90.95;101232.72;5047909;28;20095;-83
2022/06/20 00:21:05;;;;;;;11.97;3.53;;;;;;;12.47;90.87;101228.97;5053982;28;20037;-87
2022/06/20 00:23:30;;;;;;;12.73;3.67;;;;;;;12.48;90.69;101231.50;5053558;28;20028;-81
2022/06/20 00:25:55;;;;;;;13.57;3.40;;;;;;;12.38;90.80;101227.56;5048641;28;20037;-89
2022/06/20 00:28:21;;;;;;;9.77;3.30;;;;;;;12.44;90.70;101237.56;5051001;28;20032;-82
2022/06/20 00:30:47;;;;;;;11.80;3.13;;;;;;;12.37;90.44;101239.47;5052951;28;20044;-81
2022/06/20 00:33:13;;;;;;;10.83;3.30;;;;;;;12.38;90.00;101268.34;5047920;28;20388;-83
2022/06/20 00:35:39;;;;;;;12.67;3.17;;;;;;;12.44;90.74;101289.19;5050179;28;20033;-84
2022/06/20 00:38:07;;;;;;;8.30;2.80;;;;;;;12.47;90.34;101300.50;5046716;28;20041;-82
2022/06/20 00:40:39;;;;;;;10.37;3.10;;;;;;;12.49;90.99;101303.00;5051359;28;20020;-81
2022/06/20 00:43:07;;;;;;;10.13;3.03;;;;;;;12.37;91.26;101294.66;5048192;28;20032;-81
2022/06/20 00:45:39;;;;;;;12.93;3.40;;;;;;;12.40;91.67;101315.13;5047457;28;20376;-83
2022/06/20 00:48:16;;;;;;;12.87;3.17;;;;;;;12.44;90.84;101347.13;5030697;28;20423;-81
2022/06/20 00:50:47;;;;;;;10.63;3.10;;;;;;;12.43;90.52;101375.34;5051965;28;20508;-81
2022/06/20 00:53:31;;;;;;;13.23;3.00;;;;;;;12.41;89.30;101387.47;5049945;28;20021;-81
2022/06/20 00:56:01;;;;;;;11.65;3.03;;;;;;;12.45;89.60;101399.59;5051664;28;20074;-82
2022/06/20 00:58:42;;;;;;;10.03;2.90;;;;;;;12.47;88.88;101425.50;5047722;28;20092;-81
2022/06/20 01:01:13;;;;;;;9.40;2.90;;;;;;;12.50;89.72;101465.03;5032315;28;20491;-82
2022/06/20 01:03:45;;;;;;;10.30;3.00;;;;;;;12.43;89.03;101462.31;5046500;28;20118;-81
2022/06/20 01:06:21;;;;;;;14.27;3.13;;;;;;;12.54;88.41;101468.13;5049401;28;20032;-87
2022/06/20 01:08:52;;;;;;;10.20;2.80;;;;;;;12.42;88.97;101433.44;5050173;28;20712;-82
2022/06/20 01:11:24;;;;;;;11.67;3.00;;;;;;;12.47;88.28;101420.06;5050312;28;20410;-82
2022/06/20 01:13:50;;;;;;;9.87;3.10;;;;;;;12.47;88.29;101389.31;5046920;28;20028;-81
2022/06/20 01:16:29;;;;;;;12.43;3.13;;;;;;;12.64;90.11;101401.44;5033518;28;20105;-81
2022/06/20 01:19:00;;;;;;;10.83;3.50;;;;;;;12.56;90.61;101373.66;5050788;28;20696;-81
2022/06/20 01:21:31;;;;;;;8.80;3.03;;;;;;;12.72;91.29;101383.25;5045052;28;20095;-83
2022/06/20 01:24:29;;;;;;;11.07;3.30;;;;;;;12.61;92.24;101388.28;5049163;28;20372;-82
2022/06/20 01:27:20;;;;;;;12.43;3.40;;;;;;;12.58;92.97;101388.69;5045873;28;20036;-82
2022/06/20 01:29:47;;;;;;;9.73;3.10;;;;;;;12.46;91.23;101377.63;5046904;28;20047;-84
2022/06/20 01:32:13;;;;;;;13.53;3.40;;;;;;;12.60;91.58;101358.59;5045243;28;20453;-82
2022/06/20 01:34:38;;;;;;;10.50;3.80;;;;;;;12.59;92.55;101346.03;5055086;28;20029;-81
2022/06/20 01:37:23;;;;;;;11.27;3.40;;;;;;;12.68;92.83;101350.19;5052906;28;20029;-81
2022/06/20 01:39:51;;;;;;;9.30;3.30;;;;;;;12.62;93.17;101341.00;5063331;28;20025;-81
2022/06/20 01:42:20;;;;;;;11.80;3.40;;;;;;;12.49;91.79;101347.31;5057961;28;20021;-81
2022/06/20 01:44:50;;;;;;;10.23;3.43;;;;;;;12.62;92.64;101362.75;5053930;28;20064;-81
2022/06/20 01:47:15;;;;;;;13.17;3.20;;;;;;;12.51;93.18;101341.66;5053497;28;20110;-81
2022/06/20 01:49:43;;;;;;;10.70;3.37;;;;;;;12.62;93.76;101338.28;5052821;28;20079;-82
2022/06/20 01:52:19;;;;;;;11.53;3.80;;;;;;;12.57;93.46;101315.53;5052805;28;20028;-81
2022/06/20 01:54:50;;;;;;;10.40;3.47;;;;;;;12.54;93.85;101315.94;5054135;28;20021;-81
2022/06/20 01:57:17;;;;;;;8.47;3.20;;;;;;;12.58;93.60;101322.59;5052718;28;20039;-81
2022/06/20 02:00:14;;;;;;;9.70;3.30;;;;;;;12.49;93.60;101311.16;5055024;28;20028;-81
2022/06/20 02:02:45;;;;;;;8.93;3.20;;;;;;;12.39;93.69;101308.03;5043723;28;20036;-82
2022/06/20 02:05:23;;;;;;;12.53;3.50;;;;;;;12.45;94.01;101293.59;5052594;28;20108;-81
2022/06/20 02:07:49;;;;;;;10.87;3.40;;;;;;;12.48;93.14;101298.59;5067502;28;20091;-81
2022/06/20 02:10:21;;;;;;;11.87;3.40;;;;;;;12.28;93.13;101302.22;5034152;28;20036;-81
2022/06/20 02:12:49;;;;;;;11.47;3.50;;;;;;;12.23;93.05;101296.56;5043455;28;20473;-81
2022/06/20 02:15:17;;;;;;;11.07;3.53;;;;;;;12.24;93.97;101306.41;5045038;28;20040;-81
2022/06/20 02:17:46;;;;;;;10.70;3.73;;;;;;;12.32;93.67;101295.31;5038454;28;20021;-81
2022/06/20 02:20:17;;;;;;;11.13;4.07;;;;;;;12.29;92.70;101274.00;5032396;28;20018;-81
2022/06/20 02:22:45;;;;;;;12.73;3.47;;;;;;;12.33;92.00;101277.09;5030782;28;20078;-81
2022/06/20 02:25:16;;;;;;;10.60;3.53;;;;;;;12.38;91.91;101261.00;5032330;28;20034;-81
2022/06/20 02:27:56;;;;;;;12.80;3.60;;;;;;;12.44;91.70;101267.47;5031579;28;20163;-81
2022/06/20 02:30:21;;;;;;;14.73;3.87;;;;;;;12.33;91.82;101256.22;5032531;28;20373;-81
2022/06/20 02:32:54;;;;;;;16.27;4.20;;;;;;;12.35;91.98;101236.13;5033533;28;20040;-81
2022/06/20 02:35:20;;;;;;;16.87;3.93;;;;;;;12.46;91.34;101254.50;5030521;28;20027;-82
2022/06/20 02:37:47;;;;;;;9.93;3.30;;;;;;;12.44;91.16;101240.28;5032843;28;20041;-81
2022/06/20 02:40:16;;;;;;;12.43;4.07;;;;;;;12.45;90.46;101255.53;5033378;28;20065;-81
2022/06/20 02:42:51;;;;;;;9.93;3.60;;;;;;;12.43;90.68;101244.91;5031505;28;20036;-82
2022/06/20 02:45:18;;;;;;;11.40;3.70;;;;;;;12.45;90.57;101255.53;5032869;28;20040;-82
2022/06/20 02:47:47;;;;;;;10.33;3.57;;;;;;;12.40;90.72;101255.34;5030816;28;20103;-81
2022/06/20 02:50:17;;;;;;;12.73;3.70;;;;;;;12.46;90.68;101254.50;5032371;28;20045;-81
2022/06/20 02:52:52;;;;;;;14.23;3.97;;;;;;;12.42;90.95;101242.41;5031677;28;20091;-81
2022/06/20 02:55:18;;;;;;;10.63;3.60;;;;;;;12.40;90.27;101233.59;5031870;28;20030;-81
2022/06/20 02:57:48;;;;;;;12.07;3.47;;;;;;;12.43;90.04;101227.75;5033164;28;20025;-81
2022/06/20 03:00:25;;;;;;;13.87;3.73;;;;;;;12.48;89.43;101225.22;5030968;28;20108;-82
2022/06/20 03:02:57;;;;;;;12.03;3.10;;;;;;;12.49;89.10;101211.41;5030912;28;20529;-81
2022/06/20 03:05:22;;;;;;;9.93;3.17;;;;;;;12.40;89.36;101195.56;5041539;28;20372;-81
2022/06/20 03:07:49;;;;;;;9.97;3.30;;;;;;;12.44;89.16;101197.66;5054103;28;20041;-80
2022/06/20 03:10:39;;;;;;;12.87;3.20;;;;;;;12.34;89.15;101199.97;5037018;28;20036;-81
2022/06/20 03:13:05;;;;;;;13.20;3.13;;;;;;;12.44;88.92;101188.66;5054261;28;20481;-81
2022/06/20 03:15:31;;;;;;;9.33;2.97;;;;;;;12.38;89.28;101181.38;5057018;28;20024;-81
2022/06/20 03:17:57;;;;;;;11.60;3.40;;;;;;;12.41;89.06;101180.94;5057909;28;20055;-81
2022/06/20 03:20:25;;;;;;;8.67;3.10;;;;;;;12.43;89.03;101182.38;5051364;28;20120;-82
2022/06/20 03:23:05;;;;;;;10.17;3.17;;;;;;;12.44;88.56;101185.94;5044799;28;20029;-81
2022/06/20 03:25:31;;;;;;;10.43;3.03;;;;;;;12.42;88.63;101188.03;5050306;28;20036;-81
2022/06/20 03:27:57;;;;;;;11.10;3.00;;;;;;;12.32;88.22;101204.78;5038975;28;20021;-81
2022/06/20 03:30:23;;;;;;;10.87;3.57;;;;;;;12.30;89.24;101213.16;5039078;28;20029;-81
2022/06/20 03:32:48;;;;;;;12.37;3.33;;;;;;;12.20;88.75;101206.50;5057390;28;20028;-81
2022/06/20 03:35:14;;;;;;;9.97;3.10;;;;;;;12.22;88.73;101216.09;5054575;28;20419;-82
2022/06/20 03:37:39;;;;;;;10.10;3.10;;;;;;;12.29;89.02;101237.81;5060469;28;20056;-81
2022/06/20 03:40:06;;;;;;;10.43;3.20;;;;;;;12.23;88.74;101250.38;5057274;28;20033;-81
2022/06/20 03:42:31;;;;;;;8.70;3.10;;;;;;;12.24;89.53;101237.63;5056931;28;20020;-82
2022/06/20 03:44:58;;;;;;;10.10;3.30;;;;;;;12.26;89.94;101247.22;5058891;28;20036;-81
2022/06/20 03:47:33;;;;;;;7.30;2.93;;;;;;;12.20;90.40;101242.66;5037588;28;20471;-81
2022/06/20 03:50:07;;;;;;;13.27;3.38;;;;;;;12.22;89.75;101254.13;5055085;28;20104;-81
2022/06/20 03:52:39;;;;;;;12.68;3.38;;;;;;;12.25;88.82;101253.75;5054725;28;20028;-81
2022/06/20 03:55:13;;;;;;;11.40;3.57;;;;;;;12.28;88.94;101277.75;5055312;28;20021;-81
2022/06/20 03:57:47;;;;;;;10.17;3.30;;;;;;;12.26;88.50;101282.56;5071720;28;20032;-81
2022/06/20 04:00:21;;;;;;;11.07;3.25;;;;;;;12.30;88.57;101293.84;5058814;28;20052;-81
2022/06/20 04:03:00;;;;;;;13.05;3.40;;;;;;;12.30;88.70;101282.97;5055676;28;20032;-81
2022/06/20 04:05:33;;;;;;;11.83;3.43;;;;;;;12.36;88.92;101286.72;5052843;28;20524;-81
2022/06/20 04:08:07;;;;;;;13.60;3.60;;;;;;;12.37;90.26;101281.06;5041819;28;20020;-84
2022/06/20 04:10:59;;;;;;;12.95;3.10;;;;;;;12.40;89.82;101296.13;5050116;28;20025;-81
2022/06/20 04:13:30;;;;;;;10.17;3.10;;;;;;;12.44;89.71;101291.91;5011283;28;20057;-81
2022/06/20 04:15:55;;;;;;;11.70;3.20;;;;;;;12.42;89.44;101299.47;5012306;28;20061;-81
2022/06/20 04:18:29;;;;;;;10.27;3.47;;;;;;;12.43;89.89;101295.69;5024761;28;20535;-81
2022/06/20 04:20:57;;;;;;;12.85;3.75;;;;;;;12.48;90.23;101312.19;5020715;28;20524;-81
2022/06/20 04:23:42;;;;;;;12.97;3.90;;;;;;;12.50;90.45;101310.09;5012900;28;20125;-83
2022/06/20 04:26:20;;;;;;;11.05;3.67;;;;;;;12.48;90.80;101315.75;5008512;28;20037;-83
2022/06/20 04:28:48;;;;;;;13.73;3.97;;;;;;;12.48;90.60;101318.47;5005977;28;20034;-81
2022/06/20 04:31:17;;;;;;;10.83;4.10;;;;;;;12.55;90.71;101323.03;5014769;28;20029;-81
2022/06/20 04:33:50;;;;;;;9.73;3.80;;;;;;;12.56;91.01;101324.72;5013753;28;20025;-81
2022/06/20 04:36:46;;;;;;;10.93;3.57;;;;;;;12.52;90.73;101318.03;5013677;28;20045;-81
2022/06/20 04:39:39;;;;;;;11.30;4.00;;;;;;;12.62;90.84;101330.13;5014507;28;20049;-81
2022/06/20 04:42:13;;;;;;;11.37;3.80;;;;;;;12.60;90.72;101324.06;5007586;28;20041;-81
2022/06/20 04:45:13;;;;;;;14.98;3.90;;;;;;;12.65;90.54;101331.59;5017274;28;20461;-81
2022/06/20 04:47:46;;;;;;;10.17;3.57;;;;;;;12.63;90.36;101329.09;5003859;28;20128;-81
2022/06/20 04:50:25;;;;;;;11.33;3.43;;;;;;;12.68;90.33;101333.88;5021610;28;20034;-81
2022/06/20 04:52:53;;;;;;;15.37;3.57;;;;;;;12.70;89.93;101345.41;5010363;28;20355;-80
2022/06/20 04:55:22;;;;;;;8.37;3.47;;;;;;;12.74;89.91;101341.19;5013411;28;20041;-81
2022/06/20 04:57:49;;;;;;;12.13;3.80;;;;;;;12.77;89.92;101350.78;5015434;28;20132;-80
2022/06/20 05:00:52;;;;;;;13.10;3.70;;;;;;;12.83;89.75;101355.38;5013183;28;20093;-80
2022/06/20 05:03:26;;;;;;;9.97;3.53;;;;;;;12.80;89.38;101342.22;5037459;28;20096;-81
2022/06/20 05:05:53;;;;;;;9.63;4.05;;;;;;;12.91;89.62;101360.56;5025155;28;20021;-81
2022/06/20 05:08:28;;;;;;;9.90;3.60;;;;;;;12.91;89.42;101348.88;5022878;28;20038;-80
2022/06/20 05:11:08;;;;;;;9.20;3.03;;;;;;;12.90;89.46;101342.59;4974164;28;1232255;-81
2022/06/20 05:13:51;;;;;;;10.93;3.20;;;;;;;12.97;89.73;101354.28;5037209;28;20090;-81
2022/06/20 05:16:22;;;;;;;10.57;3.40;;;;;;;13.06;89.71;101351.31;5053704;28;20033;-81
2022/06/20 05:18:56;;;;;;;11.57;3.60;;;;;;;13.04;89.64;101346.09;5054544;28;20536;-81
2022/06/20 05:21:28;;;;;;;11.95;3.63;;;;;;;13.13;89.66;101360.28;5056378;28;20500;-81
2022/06/20 05:24:09;;;;;;;11.77;3.67;;;;;;;13.16;89.37;101357.97;5035097;28;20045;-82
2022/06/20 05:26:39;;;;;;;11.10;3.77;;;;;;;13.17;90.36;101358.81;5045644;28;20107;-81
2022/06/20 05:29:15;;;;;;;10.73;3.77;;;;;;;13.22;89.94;101366.28;5053122;28;20223;-81
2022/06/20 05:31:49;;;;;;;10.80;3.60;;;;;;;13.24;90.27;101375.91;5051712;28;20025;-82
2022/06/20 05:34:27;;;;;;;8.80;3.90;;;;;;;13.25;90.05;101369.44;5056688;28;20112;-81
2022/06/20 05:37:09;;;;;;;15.13;3.90;;;;;;;13.30;90.38;101379.66;5056434;28;20021;-81
2022/06/20 05:40:01;;;;;;;8.90;3.87;;;;;;;13.30;90.28;101372.34;5059148;28;20033;-81
2022/06/20 05:42:26;;;;;;;11.67;4.10;;;;;;;13.33;90.38;101377.34;5033958;28;20051;-81
2022/06/20 05:44:51;;;;;;;12.80;3.93;;;;;;;13.28;90.01;101366.28;5054795;28;20028;-82
2022/06/20 05:47:24;;;;;;;8.43;3.80;;;;;;;13.33;90.11;101368.34;5057910;28;20052;-82
2022/06/20 05:50:40;;;;;;;10.73;4.07;;;;;;;13.46;90.16;101367.47;5053012;28;20404;-82
2022/06/20 05:53:12;;;;;;;13.53;3.97;;;;;;;13.52;91.06;101361.16;5035213;28;20127;-81
2022/06/20 05:55:47;;;;;;;11.20;4.10;;;;;;;13.58;92.30;101365.72;5066807;28;20392;-82
2022/06/20 05:58:35;;;;;;;12.27;4.17;;;;;;;13.56;89.62;101359.66;5049639;28;20029;-81
2022/06/20 06:01:07;;;;;;;12.23;3.70;;;;;;;13.60;89.25;101363.63;5055440;28;20021;-81
2022/06/20 06:03:46;;;;;;;10.80;3.90;;;;;;;13.63;88.64;101370.53;5053384;28;20531;-82
2022/06/20 06:06:23;;;;;;;11.77;3.77;;;;;;;13.73;88.32;101383.66;5058185;28;20024;-81
2022/06/20 06:08:52;;;;;;;10.03;3.80;;;;;;;13.75;88.20;101384.25;5062044;28;20518;-82
2022/06/20 06:11:23;;;;;;;11.00;3.40;;;;;;;13.82;88.28;101382.34;5051704;28;20521;-81
2022/06/20 06:14:05;;;;;;;11.37;3.70;;;;;;;13.83;87.61;101378.53;5053643;28;20091;-81
2022/06/20 06:16:48;;;;;;;12.10;3.47;;;;;;;13.83;87.17;101381.25;5053002;28;20043;-82
2022/06/20 06:19:40;;;;;;;10.10;3.57;;;;;;;13.97;87.78;101384.75;5053126;28;20029;-82
2022/06/20 06:22:12;;;;;;;12.70;3.93;;;;;;;13.97;88.40;101390.19;5054189;28;20037;-82
2022/06/20 06:24:42;;;;;;;10.53;3.70;;;;;;;13.90;86.76;101384.78;5052894;28;20021;-81
2022/06/20 06:27:15;;;;;;;8.73;3.10;;;;;;;13.93;86.35;101388.97;5054778;28;20357;-81
2022/06/20 06:29:47;;;;;;;13.63;3.93;;;;;;;13.95;85.82;101386.84;5047158;28;20017;-82
2022/06/20 06:32:31;;;;;;;13.13;4.00;;;;;;;14.16;86.65;101391.09;5052214;28;20068;-81
2022/06/20 06:35:28;;;;;;;9.77;3.58;;;;;;;14.24;85.26;101390.81;5059008;28;20021;-82
2022/06/20 06:38:01;;;;;;;10.70;3.80;;;;;;;14.22;84.51;101381.19;5030818;28;20052;-82
2022/06/20 06:40:32;;;;;;;8.03;3.60;;;;;;;14.47;85.96;101386.59;5053788;28;20507;-82
2022/06/20 06:42:59;;;;;;;10.37;3.50;;;;;;;14.53;83.22;101383.81;5037237;28;20246;-82
2022/06/20 06:45:26;;;;;;;8.93;3.07;;;;;;;14.65;81.44;101386.66;5052475;28;20063;-82
2022/06/20 06:48:00;;;;;;;9.60;3.30;;;;;;;14.74;79.92;101378.19;5053181;28;20021;-82
2022/06/20 06:50:39;;;;;;;8.93;3.50;;;;;;;14.73;79.86;101395.59;5058186;28;20017;-82
2022/06/20 06:53:11;;;;;;;7.13;3.07;;;;;;;14.78;80.24;101409.41;5052692;28;20021;-82
2022/06/20 06:55:40;;;;;;;8.07;3.10;;;;;;;14.91;79.00;101411.16;5067055;28;20024;-82
2022/06/20 06:58:16;;;;;;;12.13;3.50;;;;;;;14.93;77.65;101415.34;5058022;28;20033;-82
2022/06/20 07:00:46;;;;;;;11.97;3.47;;;;;;;15.01;78.02;101419.63;5048455;28;20037;-82
2022/06/20 07:03:25;;;;;;;9.17;3.63;;;;;;;15.01;77.32;101400.53;5052306;28;20033;-81
2022/06/20 07:05:57;;;;;;;11.70;3.30;;;;;;;15.01;76.73;101406.00;5053353;28;20967;-82
2022/06/20 07:08:30;;;;;;;7.50;3.13;;;;;;;15.12;76.12;101423.50;5049538;28;20017;-82
2022/06/20 07:10:59;;;;;;;9.00;3.10;;;;;;;15.20;74.73;101423.19;5048337;28;20024;-87
2022/06/20 07:13:40;;;;;;;7.27;2.93;;;;;;;15.41;75.65;101426.50;5062688;28;20310;-85
2022/06/20 07:16:20;;;;;;;10.33;3.20;;;;;;;15.54;75.15;101431.78;5060779;28;20032;-82
2022/06/20 07:18:52;;;;;;;7.10;2.77;;;;;;;15.43;73.00;101435.31;5052599;28;20037;-82
2022/06/20 07:21:21;;;;;;;10.47;3.30;;;;;;;15.63;73.46;101438.59;5057955;28;20028;-82
2022/06/20 07:23:52;;;;;;;7.53;2.97;;;;;;;15.74;72.70;101447.09;5050502;28;20033;-81
2022/06/20 07:26:22;;;;;;;5.97;2.63;;;;;;;15.70;68.33;101442.06;5050430;28;20059;-81
2022/06/20 07:29:11;;;;;;;7.53;2.70;;;;;;;15.86;69.69;101445.25;5060828;28;20028;-82
2022/06/20 07:31:43;;;;;;;9.40;2.90;;;;;;;15.81;72.49;101442.38;5073620;28;20024;-83
2022/06/20 07:34:22;;;;;;;7.57;3.03;;;;;;;15.95;71.18;101443.03;5043158;28;20029;-82
2022/06/20 07:36:52;;;;;;;9.57;2.80;;;;;;;15.97;70.86;101435.44;5038977;28;20054;-83
2022/06/20 07:39:37;;;;;;;8.20;2.70;;;;;;;16.00;70.44;101433.06;5040290;28;20025;-83
2022/06/20 07:42:09;;;;;;;9.77;3.17;;;;;;;15.80;69.61;101438.84;5039161;28;20119;-83
2022/06/20 07:44:37;;;;;;;10.47;2.90;;;;;;;15.70;70.30;101442.06;5039539;28;20645;-82
2022/06/20 07:47:20;;;;;;;6.23;2.60;;;;;;;15.76;71.34;101436.75;5039307;28;20028;-83
2022/06/20 07:49:50;;;;;;;6.13;2.57;;;;;;;15.72;69.79;101422.75;5039519;28;20522;-83
2022/06/20 07:52:24;;;;;;;7.37;2.90;;;;;;;16.09;70.70;101438.19;5039504;28;20064;-83
2022/06/20 07:54:58;;;;;;;7.33;3.13;;;;;;;16.32;70.12;101442.84;5042732;28;20063;-85
2022/06/20 07:57:31;;;;;;;7.95;2.53;;;;;;;16.53;68.68;101434.06;5043126;28;20119;-84
2022/06/20 08:00:13;;;;;;;7.20;3.30;;;;;;;16.57;68.88;101439.91;5043590;28;20047;-81
2022/06/20 08:02:46;;;;;;;6.87;2.90;;;;;;;16.73;67.01;101451.22;5042996;28;20047;-83
2022/06/20 08:05:27;;;;;;;8.10;2.90;;;;;;;16.76;66.29;101453.50;5041691;28;20196;-82
2022/06/20 08:08:19;;;;;;;9.87;2.80;;;;;;;16.51;66.04;101457.28;5042052;28;20111;-83
2022/06/20 08:10:51;;;;;;;9.23;2.90;;;;;;;16.20;65.62;101434.66;5020248;28;20247;-85
2022/06/20 08:13:39;;;;;;;12.13;3.27;;;;;;;16.44;65.55;101462.03;5043512;28;20036;-83
2022/06/20 08:16:16;;;;;;;9.13;3.23;;;;;;;16.48;66.34;101466.81;5043081;28;20044;-84
2022/06/20 08:18:42;;;;;;;7.33;3.00;;;;;;;16.66;65.16;101454.91;5042611;28;20087;-83
2022/06/20 08:21:19;;;;;;;10.20;3.10;;;;;;;16.70;65.12;101460.75;5042997;28;20066;-83
2022/06/20 08:23:49;;;;;;;7.93;2.83;;;;;;;16.57;63.53;101456.31;5042101;28;20155;-82
2022/06/20 08:26:23;;;;;;;10.20;3.10;;;;;;;16.59;62.46;101456.94;5042861;28;20091;-83
2022/06/20 08:28:52;;;;;;;;;;;;;;;16.96;64.55;101461.34;5043813;28;20051;-84
2022/06/20 08:31:17;;;;;;;8.93;2.90;;;;;;;16.95;63.06;101459.69;5024959;28;19925;-84
2022/06/20 08:33:56;;;;;;;9.77;3.20;;;;;;;17.32;62.62;101457.47;5042386;28;20101;-83
2022/06/20 08:36:57;;;;;;;9.27;3.23;;;;;;;17.41;61.28;101455.19;5042265;28;20033;-82
2022/06/20 08:39:53;;;;;;;6.70;2.80;;;;;;;17.36;59.14;101466.84;5043302;28;20040;-84
2022/06/20 08:42:34;;;;;;;5.90;2.60;;;;;;;17.29;60.12;101479.88;5042307;28;20067;-85
2022/06/20 08:45:13;;;;;;;9.10;3.10;;;;;;;17.24;59.09;101481.66;5042996;28;20027;-85
2022/06/20 08:48:01;;;;;;;5.53;2.60;;;;;;;17.36;58.67;101471.50;5042840;28;20029;-84
2022/06/20 08:50:57;;;;;;;6.18;2.75;;;;;;;17.38;58.33;101483.06;5042281;28;20063;-84
2022/06/20 08:53:49;;;;;;;7.47;2.87;;;;;;;17.58;59.71;101481.81;5041932;28;20036;-84
2022/06/20 08:56:34;;;;;;;9.18;2.70;;;;;;;17.43;59.21;101496.84;5041691;28;20035;-84
2022/06/20 08:59:08;;;;;;;5.10;2.47;;;;;;;17.61;57.53;101492.28;5041598;28;20053;-83
2022/06/20 09:02:10;;;;;;;5.63;2.30;;;;;;;17.97;57.30;101493.03;5041098;28;20040;-82
2022/06/20 09:04:46;;;;;;;7.82;2.72;;;;;;;18.51;57.14;101495.34;5040856;28;20047;-84
2022/06/20 09:07:11;;;;;;;6.95;2.70;;;;;;;18.95;55.98;101500.97;5041934;28;20080;-84
2022/06/20 09:09:55;;;;;;;7.18;2.50;;;;;;;19.16;52.76;101504.84;5041697;28;20116;-84
2022/06/20 09:12:42;;;;;;;6.82;2.47;;;;;;;19.50;53.58;101492.91;5047083;28;20041;-81
2022/06/20 09:15:16;;;;;;;6.97;2.55;;;;;;;19.93;50.72;101496.72;5054183;28;20069;-82
2022/06/20 09:17:44;;;;;;;6.80;2.50;;;;;;;20.35;49.87;101501.53;5064336;28;20028;-81
2022/06/20 09:20:29;;;;;;;6.50;2.30;;;;;;;21.04;50.00;101513.66;5056306;28;20033;-82
2022/06/20 09:23:07;;;;;;;5.15;2.53;;;;;;;21.09;48.17;101515.59;5065978;28;20064;-81
2022/06/20 09:25:51;;;;;;;6.07;2.80;;;;;;;21.39;48.14;101506.66;5057133;28;20077;-80
2022/06/20 09:28:35;;;;;;;;;;;;;;;22.19;51.36;101507.47;5061065;28;20036;-82
2022/06/20 09:31:14;;;;;;;8.90;3.40;;;;;;;21.57;46.80;101510.91;5050231;28;19912;-81
2022/06/20 09:34:15;;;;;;;8.60;3.35;;;;;;;21.59;48.66;101514.19;5052702;28;20029;-81
2022/06/20 09:36:53;;;;;;;5.82;2.65;;;;;;;20.72;45.78;101500.75;5049269;28;20020;-82
2022/06/20 09:39:33;;;;;;;8.20;2.80;;;;;;;20.45;46.69;101517.28;5052771;28;20029;-81
2022/06/20 09:42:05;;;;;;;9.20;2.67;;;;;;;20.07;47.37;101506.25;5051513;28;20024;-80
2022/06/20 09:44:46;;;;;;;8.57;3.25;;;;;;;20.39;48.96;101510.91;5051281;28;20021;-80
2022/06/20 09:47:49;;;;;;;8.20;2.85;;;;;;;21.10;50.01;101499.91;5050679;28;20027;-81
2022/06/20 09:50:53;;;;;;;8.00;2.90;;;;;;;21.27;50.60;101510.72;5054353;28;20039;-81
2022/06/20 09:53:32;;;;;;;8.18;2.63;;;;;;;20.74;44.34;101504.09;5050009;28;20027;-80
2022/06/20 09:56:31;;;;;;;9.50;3.40;;;;;;;20.70;48.62;101513.16;5049323;28;21105;-80
2022/06/20 09:59:17;;;;;;;8.80;3.40;;;;;;;20.12;48.67;101510.13;5046645;28;20106;-83
2022/06/20 10:01:52;;;;;;;10.38;3.55;;;;;;;20.39;52.71;101494.41;5051964;28;20412;-81
2022/06/20 10:04:28;;;;;;;8.65;2.92;;;;;;;20.79;48.42;101491.44;5040144;28;20020;-81
2022/06/20 10:07:08;;;;;;;7.47;2.90;;;;;;;21.63;47.77;101503.47;5040613;28;20062;-83
2022/06/20 10:09:58;;;;;;;7.47;3.13;;;;;;;22.30;48.23;101503.59;5040776;28;20044;-83
2022/06/20 10:12:46;;;;;;;7.88;3.13;;;;;;;22.68;47.59;101512.47;5039670;28;20492;-82
2022/06/20 10:15:21;;;;;;;8.32;3.00;;;;;;;22.36;44.24;101508.06;5041088;28;20078;-81
2022/06/20 10:18:02;;;;;;;6.82;2.95;;;;;;;22.52;44.54;101513.56;5039713;28;20028;-81
2022/06/20 10:20:42;;;;;;;7.88;3.17;;;;;;;22.07;42.06;101519.59;5040390;28;20036;-81
2022/06/20 10:23:48;;;;;;;8.88;3.15;;;;;;;22.58;44.96;101518.81;5040767;28;20039;-80
2022/06/20 10:26:39;;;;;;;7.65;2.90;;;;;;;22.80;45.01;101519.66;5040909;28;20385;-81
2022/06/20 10:29:19;;;;;;;6.18;2.90;;;;;;;22.07;42.48;101525.13;5041025;28;20336;-81
2022/06/20 10:32:02;;;;;;;11.02;3.45;;;;;;;21.47;44.94;101526.53;5040893;28;20704;-80
2022/06/20 10:34:30;;;;;;;7.32;3.30;;;;;;;21.29;43.24;101538.88;5040131;28;20090;-81
2022/06/20 10:37:11;;;;;;;4.95;2.78;;;;;;;21.75;47.33;101525.31;5051587;28;20032;-80
2022/06/20 10:40:01;;;;;;;6.80;2.90;;;;;;;22.11;46.29;101535.59;5039984;28;20087;-81
2022/06/20 10:42:38;;;;;;;6.78;2.83;;;;;;;22.46;47.24;101528.50;5039357;28;20041;-81
2022/06/20 10:45:15;;;;;;;6.80;3.08;;;;;;;21.81;44.04;101538.00;5022305;28;20049;-81
2022/06/20 10:47:56;;;;;;;8.13;3.00;;;;;;;21.43;44.82;101542.78;5036857;28;20058;-82
2022/06/20 10:50:34;;;;;;;9.73;3.45;;;;;;;21.46;44.39;101542.25;5039812;28;20492;-79
2022/06/20 10:53:00;;;;;;;10.38;3.47;;;;;;;22.12;44.32;101551.06;5040239;28;20143;-81
2022/06/20 10:55:25;;;;;;;7.38;3.10;;;;;;;21.83;42.66;101546.03;5039578;28;20037;-82
2022/06/20 10:58:01;;;;;;;10.77;3.33;;;;;;;21.63;42.75;101552.28;5038618;28;20041;-80
2022/06/20 11:00:31;;;;;;;9.13;3.35;;;;;;;21.26;44.31;101551.25;5039828;28;20115;-80
2022/06/20 11:02:57;;;;;;;7.07;2.88;;;;;;;21.07;48.63;101551.69;5039879;28;20522;-82
2022/06/20 11:05:45;;;;;;;8.98;3.22;;;;;;;20.71;46.68;101553.34;5040457;28;20529;-82
2022/06/20 11:08:29;;;;;;;7.35;3.00;;;;;;;20.36;46.21;101557.41;5038167;28;20600;-80
2022/06/20 11:11:43;;;;;;;7.10;3.10;;;;;;;20.88;48.60;101555.97;5039431;28;20043;-82
2022/06/20 11:14:26;;;;;;;6.30;2.90;;;;;;;21.03;48.35;101547.78;5036349;28;20519;-82
2022/06/20 11:17:10;;;;;;;5.50;2.78;;;;;;;21.63;46.33;101553.09;5040596;28;20082;-81
2022/06/20 11:20:13;;;;;;;8.27;3.10;;;;;;;21.31;45.60;101544.91;5037732;28;20075;-84
2022/06/20 11:22:43;;;;;;;12.32;3.40;;;;;;;20.41;46.55;101561.03;5039855;28;20040;-80
2022/06/20 11:25:11;;;;;;;9.80;3.60;;;;;;;20.29;46.07;101554.88;5039652;28;20033;-80
2022/06/20 11:28:04;;;;;;;8.32;2.90;;;;;;;20.60;47.18;101560.66;5038989;28;20721;-79
2022/06/20 11:30:47;;;;;;;9.35;3.13;;;;;;;21.27;48.19;101558.44;5044188;28;20120;-80
2022/06/20 11:36:51;;;;;;;9.52;2.85;;;;;;;21.23;44.72;101552.59;5043993;28;20048;-82
2022/06/20 11:39:43;;;;;;;10.07;3.30;;;;;;;20.99;45.20;101552.16;5043352;28;20067;-80
2022/06/20 11:42:11;;;;;;;8.15;2.70;;;;;;;20.55;46.37;101550.44;5043779;28;20040;-81
2022/06/20 11:44:49;;;;;;;9.00;2.85;;;;;;;20.67;44.62;101553.00;5043220;28;20486;-79
2022/06/20 11:47:25;;;;;;;8.05;2.80;;;;;;;20.60;46.34;101546.06;5043334;28;20544;-80
2022/06/20 11:50:12;;;;;;;8.65;2.80;;;;;;;20.66;47.40;101553.28;5042501;28;20045;-79
2022/06/20 11:53:09;;;;;;;7.45;2.90;;;;;;;20.42;46.14;101554.44;5042635;28;20029;-82
2022/06/20 11:55:50;;;;;;;6.90;2.60;;;;;;;20.79;47.69;101546.53;5043092;28;20423;-79
2022/06/20 11:58:31;;;;;;;8.10;3.08;;;;;;;21.49;49.67;101549.16;5042867;28;20037;-79
2022/06/20 12:01:27;;;;;;;7.82;3.13;;;;;;;21.78;46.87;101546.00;5042171;28;20043;-80
2022/06/20 12:04:19;;;;;;;8.15;2.80;;;;;;;21.54;46.20;101560.22;5042096;28;20618;-79
2022/06/20 12:06:56;;;;;;;7.15;2.70;;;;;;;21.33;43.83;101557.34;5033639;28;20591;-81